sensor_id;sensor_type;location;lat;lon;timestamp;P1;durP1;ratioP1;P2;durP2;ratioP2
20073;SDS011;10197;54.282;10.078;2023-07-31T00:01:19;2.55;;;1.80;;
20073;SDS011;10197;54.282;10.078;2023-07-31T00:03:46;5.70;;;1.92;;
20073;SDS011;10197;54.282;10.078;2023-07-31T00:06:13;2.25;;;1.80;;
20073;SDS011;10197;54.282;10.078;2023-07-31T00:08:41;4.93;;;1.90;;
20073;SDS011;10197;54.282;10.078;2023-07-31T00:11:08;4.53;;;1.65;;
20073;SDS011;10197;54.282;10.078;2023-07-31T00:13:34;3.30;;;1.98;;
20073;SDS011;10197;54.282;10.078;2023-07-31T00:16:01;8.13;;;2.47;;
20073;SDS011;10197;54.282;10.078;2023-07-31T00:18:28;3.88;;;1.88;;
20073;SDS011;10197;54.282;10.078;2023-07-31T00:20:55;4.53;;;2.20;;
20073;SDS011;10197;54.282;10.078;2023-07-31T00:23:21;8.40;;;2.70;;
20073;SDS011;10197;54.282;10.078;2023-07-31T00:25:50;2.75;;;2.00;;
20073;SDS011;10197;54.282;10.078;2023-07-31T00:28:16;5.60;;;2.72;;
20073;SDS011;10197;54.282;10.078;2023-07-31T00:30:43;4.63;;;2.40;;
20073;SDS011;10197;54.282;10.078;2023-07-31T00:33:10;5.63;;;1.88;;
20073;SDS011;10197;54.282;10.078;2023-07-31T00:35:37;7.22;;;2.20;;
20073;SDS011;10197;54.282;10.078;2023-07-31T00:38:03;4.50;;;1.85;;
20073;SDS011;10197;54.282;10.078;2023-07-31T00:40:34;8.35;;;2.60;;
20073;SDS011;10197;54.282;10.078;2023-07-31T00:43:02;7.60;;;2.20;;
20073;SDS011;10197;54.282;10.078;2023-07-31T00:45:29;3.65;;;2.00;;
20073;SDS011;10197;54.282;10.078;2023-07-31T00:51:43;3.70;;;2.00;;
20073;SDS011;10197;54.282;10.078;2023-07-31T00:54:10;4.63;;;1.88;;
20073;SDS011;10197;54.282;10.078;2023-07-31T00:56:38;4.93;;;1.83;;
20073;SDS011;10197;54.282;10.078;2023-07-31T00:59:09;3.38;;;1.58;;
20073;SDS011;10197;54.282;10.078;2023-07-31T01:01:36;4.72;;;2.13;;
20073;SDS011;10197;54.282;10.078;2023-07-31T01:04:03;3.35;;;2.10;;
20073;SDS011;10197;54.282;10.078;2023-07-31T01:06:31;3.90;;;1.80;;
20073;SDS011;10197;54.282;10.078;2023-07-31T01:09:02;5.45;;;1.77;;
20073;SDS011;10197;54.282;10.078;2023-07-31T01:11:31;5.65;;;2.00;;
20073;SDS011;10197;54.282;10.078;2023-07-31T01:14:00;2.75;;;1.60;;
20073;SDS011;10197;54.282;10.078;2023-07-31T01:16:28;3.35;;;1.98;;
20073;SDS011;10197;54.282;10.078;2023-07-31T01:18:56;3.90;;;1.48;;
20073;SDS011;10197;54.282;10.078;2023-07-31T01:21:27;3.97;;;1.63;;
20073;SDS011;10197;54.282;10.078;2023-07-31T01:24:08;5.63;;;1.60;;
20073;SDS011;10197;54.282;10.078;2023-07-31T01:26:45;6.03;;;1.80;;
20073;SDS011;10197;54.282;10.078;2023-07-31T01:29:16;2.10;;;1.55;;
20073;SDS011;10197;54.282;10.078;2023-07-31T01:31:47;4.78;;;1.83;;
20073;SDS011;10197;54.282;10.078;2023-07-31T01:34:15;4.65;;;1.42;;
20073;SDS011;10197;54.282;10.078;2023-07-31T01:36:44;3.20;;;1.55;;
20073;SDS011;10197;54.282;10.078;2023-07-31T01:39:11;2.03;;;1.60;;
20073;SDS011;10197;54.282;10.078;2023-07-31T01:41:38;2.92;;;1.63;;
20073;SDS011;10197;54.282;10.078;2023-07-31T01:44:06;3.65;;;1.23;;
20073;SDS011;10197;54.282;10.078;2023-07-31T01:46:33;2.65;;;1.50;;
20073;SDS011;10197;54.282;10.078;2023-07-31T01:49:00;3.20;;;1.50;;
20073;SDS011;10197;54.282;10.078;2023-07-31T01:51:27;1.98;;;1.30;;
20073;SDS011;10197;54.282;10.078;2023-07-31T01:53:54;2.05;;;1.48;;
20073;SDS011;10197;54.282;10.078;2023-07-31T01:56:21;1.63;;;1.10;;
20073;SDS011;10197;54.282;10.078;2023-07-31T01:58:48;1.55;;;1.10;;
20073;SDS011;10197;54.282;10.078;2023-07-31T02:01:16;2.05;;;1.30;;
20073;SDS011;10197;54.282;10.078;2023-07-31T02:03:43;2.35;;;1.35;;
20073;SDS011;10197;54.282;10.078;2023-07-31T02:06:09;2.72;;;1.58;;
20073;SDS011;10197;54.282;10.078;2023-07-31T02:08:36;1.77;;;1.40;;
20073;SDS011;10197;54.282;10.078;2023-07-31T02:11:03;1.83;;;1.40;;
20073;SDS011;10197;54.282;10.078;2023-07-31T02:13:30;1.92;;;1.30;;
20073;SDS011;10197;54.282;10.078;2023-07-31T02:15:57;1.90;;;1.30;;
20073;SDS011;10197;54.282;10.078;2023-07-31T02:18:26;6.25;;;1.60;;
20073;SDS011;10197;54.282;10.078;2023-07-31T02:20:53;1.48;;;1.30;;
20073;SDS011;10197;54.282;10.078;2023-07-31T02:23:19;2.03;;;1.45;;
20073;SDS011;10197;54.282;10.078;2023-07-31T02:25:46;1.67;;;1.58;;
20073;SDS011;10197;54.282;10.078;2023-07-31T02:28:14;1.85;;;1.42;;
20073;SDS011;10197;54.282;10.078;2023-07-31T02:30:43;2.13;;;1.77;;
20073;SDS011;10197;54.282;10.078;2023-07-31T02:33:10;3.05;;;1.60;;
20073;SDS011;10197;54.282;10.078;2023-07-31T02:35:38;4.55;;;1.90;;
20073;SDS011;10197;54.282;10.078;2023-07-31T02:38:05;3.33;;;1.98;;
20073;SDS011;10197;54.282;10.078;2023-07-31T02:40:31;4.57;;;1.85;;
20073;SDS011;10197;54.282;10.078;2023-07-31T02:42:58;4.57;;;2.00;;
20073;SDS011;10197;54.282;10.078;2023-07-31T02:45:26;5.05;;;2.22;;
20073;SDS011;10197;54.282;10.078;2023-07-31T02:47:53;4.20;;;2.40;;
20073;SDS011;10197;54.282;10.078;2023-07-31T02:50:20;5.75;;;2.33;;
20073;SDS011;10197;54.282;10.078;2023-07-31T02:52:48;4.38;;;2.63;;
20073;SDS011;10197;54.282;10.078;2023-07-31T02:55:15;5.20;;;2.78;;
20073;SDS011;10197;54.282;10.078;2023-07-31T02:57:42;2.88;;;2.03;;
20073;SDS011;10197;54.282;10.078;2023-07-31T03:00:09;5.18;;;3.15;;
20073;SDS011;10197;54.282;10.078;2023-07-31T03:02:36;7.88;;;3.35;;
20073;SDS011;10197;54.282;10.078;2023-07-31T03:05:04;4.75;;;2.55;;
20073;SDS011;10197;54.282;10.078;2023-07-31T03:07:31;7.65;;;3.25;;
20073;SDS011;10197;54.282;10.078;2023-07-31T03:09:59;4.95;;;3.05;;
20073;SDS011;10197;54.282;10.078;2023-07-31T03:12:28;5.80;;;2.72;;
20073;SDS011;10197;54.282;10.078;2023-07-31T03:14:55;4.07;;;2.80;;
20073;SDS011;10197;54.282;10.078;2023-07-31T03:17:22;7.68;;;3.45;;
20073;SDS011;10197;54.282;10.078;2023-07-31T03:19:49;6.13;;;3.10;;
20073;SDS011;10197;54.282;10.078;2023-07-31T03:22:15;8.75;;;3.58;;
20073;SDS011;10197;54.282;10.078;2023-07-31T03:24:42;7.28;;;3.80;;
20073;SDS011;10197;54.282;10.078;2023-07-31T03:27:10;9.30;;;3.47;;
20073;SDS011;10197;54.282;10.078;2023-07-31T03:29:37;7.18;;;4.10;;
20073;SDS011;10197;54.282;10.078;2023-07-31T03:32:04;6.05;;;3.45;;
20073;SDS011;10197;54.282;10.078;2023-07-31T03:34:31;11.68;;;5.03;;
20073;SDS011;10197;54.282;10.078;2023-07-31T03:36:58;8.35;;;3.35;;
20073;SDS011;10197;54.282;10.078;2023-07-31T03:39:27;12.20;;;3.90;;
20073;SDS011;10197;54.282;10.078;2023-07-31T03:41:54;8.15;;;4.05;;
20073;SDS011;10197;54.282;10.078;2023-07-31T03:44:24;13.77;;;5.03;;
20073;SDS011;10197;54.282;10.078;2023-07-31T03:46:51;6.65;;;3.70;;
20073;SDS011;10197;54.282;10.078;2023-07-31T03:49:19;6.95;;;4.40;;
20073;SDS011;10197;54.282;10.078;2023-07-31T03:51:45;10.27;;;4.50;;
20073;SDS011;10197;54.282;10.078;2023-07-31T03:54:12;9.52;;;4.35;;
20073;SDS011;10197;54.282;10.078;2023-07-31T03:56:39;7.43;;;4.72;;
20073;SDS011;10197;54.282;10.078;2023-07-31T03:59:06;17.40;;;5.57;;
20073;SDS011;10197;54.282;10.078;2023-07-31T04:01:34;5.85;;;4.57;;
20073;SDS011;10197;54.282;10.078;2023-07-31T04:04:01;14.70;;;6.22;;
20073;SDS011;10197;54.282;10.078;2023-07-31T04:06:27;10.32;;;5.28;;
20073;SDS011;10197;54.282;10.078;2023-07-31T04:08:54;8.68;;;5.90;;
20073;SDS011;10197;54.282;10.078;2023-07-31T04:11:21;11.05;;;5.10;;
20073;SDS011;10197;54.282;10.078;2023-07-31T04:13:48;8.63;;;5.45;;
20073;SDS011;10197;54.282;10.078;2023-07-31T04:16:14;10.77;;;5.13;;
20073;SDS011;10197;54.282;10.078;2023-07-31T04:18:42;14.55;;;5.63;;
20073;SDS011;10197;54.282;10.078;2023-07-31T04:21:09;18.52;;;6.75;;
20073;SDS011;10197;54.282;10.078;2023-07-31T04:23:36;11.02;;;6.35;;
20073;SDS011;10197;54.282;10.078;2023-07-31T04:26:03;13.23;;;6.82;;
20073;SDS011;10197;54.282;10.078;2023-07-31T04:28:29;11.00;;;5.68;;
20073;SDS011;10197;54.282;10.078;2023-07-31T04:30:57;11.38;;;6.10;;
20073;SDS011;10197;54.282;10.078;2023-07-31T04:33:24;12.57;;;6.75;;
20073;SDS011;10197;54.282;10.078;2023-07-31T04:35:52;12.85;;;6.78;;
20073;SDS011;10197;54.282;10.078;2023-07-31T04:38:19;20.85;;;7.03;;
20073;SDS011;10197;54.282;10.078;2023-07-31T04:40:48;10.27;;;6.22;;
20073;SDS011;10197;54.282;10.078;2023-07-31T04:43:16;15.60;;;7.90;;
20073;SDS011;10197;54.282;10.078;2023-07-31T04:45:44;12.15;;;7.03;;
20073;SDS011;10197;54.282;10.078;2023-07-31T04:48:12;8.82;;;5.88;;
20073;SDS011;10197;54.282;10.078;2023-07-31T04:50:39;12.23;;;7.20;;
20073;SDS011;10197;54.282;10.078;2023-07-31T04:53:07;12.40;;;7.05;;
20073;SDS011;10197;54.282;10.078;2023-07-31T04:55:34;14.70;;;7.57;;
20073;SDS011;10197;54.282;10.078;2023-07-31T04:58:01;15.27;;;8.23;;
20073;SDS011;10197;54.282;10.078;2023-07-31T05:00:27;12.43;;;6.45;;
20073;SDS011;10197;54.282;10.078;2023-07-31T05:02:54;14.38;;;7.45;;
20073;SDS011;10197;54.282;10.078;2023-07-31T05:05:21;14.63;;;6.82;;
20073;SDS011;10197;54.282;10.078;2023-07-31T05:07:48;12.32;;;6.03;;
20073;SDS011;10197;54.282;10.078;2023-07-31T05:10:18;15.60;;;7.90;;
20073;SDS011;10197;54.282;10.078;2023-07-31T05:12:44;13.15;;;6.88;;
20073;SDS011;10197;54.282;10.078;2023-07-31T05:15:11;12.98;;;8.90;;
20073;SDS011;10197;54.282;10.078;2023-07-31T05:17:38;14.68;;;7.97;;
20073;SDS011;10197;54.282;10.078;2023-07-31T05:20:05;10.80;;;7.63;;
20073;SDS011;10197;54.282;10.078;2023-07-31T05:22:33;16.55;;;8.65;;
20073;SDS011;10197;54.282;10.078;2023-07-31T05:25:01;17.55;;;8.48;;
20073;SDS011;10197;54.282;10.078;2023-07-31T05:27:29;12.50;;;7.22;;
20073;SDS011;10197;54.282;10.078;2023-07-31T05:29:56;13.82;;;7.13;;
20073;SDS011;10197;54.282;10.078;2023-07-31T05:32:23;13.80;;;8.27;;
20073;SDS011;10197;54.282;10.078;2023-07-31T05:34:50;12.70;;;7.88;;
20073;SDS011;10197;54.282;10.078;2023-07-31T05:37:17;7.80;;;5.53;;
20073;SDS011;10197;54.282;10.078;2023-07-31T05:39:44;11.25;;;5.70;;
20073;SDS011;10197;54.282;10.078;2023-07-31T05:42:10;9.77;;;7.32;;
20073;SDS011;10197;54.282;10.078;2023-07-31T05:44:38;8.90;;;6.53;;
20073;SDS011;10197;54.282;10.078;2023-07-31T05:47:05;9.25;;;7.13;;
20073;SDS011;10197;54.282;10.078;2023-07-31T05:49:32;7.43;;;5.30;;
20073;SDS011;10197;54.282;10.078;2023-07-31T05:52:01;9.35;;;7.00;;
20073;SDS011;10197;54.282;10.078;2023-07-31T05:54:28;9.30;;;5.93;;
20073;SDS011;10197;54.282;10.078;2023-07-31T05:56:54;11.15;;;6.40;;
20073;SDS011;10197;54.282;10.078;2023-07-31T05:59:21;9.75;;;6.43;;
20073;SDS011;10197;54.282;10.078;2023-07-31T06:01:49;7.90;;;5.50;;
20073;SDS011;10197;54.282;10.078;2023-07-31T06:04:16;11.27;;;5.93;;
20073;SDS011;10197;54.282;10.078;2023-07-31T06:06:43;7.05;;;5.47;;
20073;SDS011;10197;54.282;10.078;2023-07-31T06:09:11;8.95;;;6.43;;
20073;SDS011;10197;54.282;10.078;2023-07-31T06:11:40;7.32;;;5.10;;
20073;SDS011;10197;54.282;10.078;2023-07-31T06:14:06;8.93;;;6.45;;
20073;SDS011;10197;54.282;10.078;2023-07-31T06:16:33;8.05;;;5.38;;
20073;SDS011;10197;54.282;10.078;2023-07-31T06:19:01;7.45;;;5.88;;
20073;SDS011;10197;54.282;10.078;2023-07-31T06:21:28;7.88;;;5.72;;
20073;SDS011;10197;54.282;10.078;2023-07-31T06:23:56;9.07;;;6.18;;
20073;SDS011;10197;54.282;10.078;2023-07-31T06:26:23;7.10;;;5.00;;
20073;SDS011;10197;54.282;10.078;2023-07-31T06:28:50;9.32;;;5.50;;
20073;SDS011;10197;54.282;10.078;2023-07-31T06:31:17;6.65;;;5.10;;
20073;SDS011;10197;54.282;10.078;2023-07-31T06:33:48;8.40;;;5.32;;
20073;SDS011;10197;54.282;10.078;2023-07-31T06:36:16;7.63;;;5.32;;
20073;SDS011;10197;54.282;10.078;2023-07-31T06:38:43;6.53;;;4.78;;
20073;SDS011;10197;54.282;10.078;2023-07-31T06:41:10;6.85;;;4.82;;
20073;SDS011;10197;54.282;10.078;2023-07-31T06:43:36;5.35;;;4.55;;
20073;SDS011;10197;54.282;10.078;2023-07-31T06:46:04;6.30;;;4.20;;
20073;SDS011;10197;54.282;10.078;2023-07-31T06:48:31;5.32;;;4.75;;
20073;SDS011;10197;54.282;10.078;2023-07-31T06:50:58;4.72;;;3.67;;
20073;SDS011;10197;54.282;10.078;2023-07-31T06:53:27;4.90;;;4.30;;
20073;SDS011;10197;54.282;10.078;2023-07-31T06:55:54;4.97;;;3.90;;
20073;SDS011;10197;54.282;10.078;2023-07-31T06:58:21;4.38;;;3.90;;
20073;SDS011;10197;54.282;10.078;2023-07-31T07:00:50;5.95;;;4.25;;
20073;SDS011;10197;54.282;10.078;2023-07-31T07:03:17;3.53;;;3.20;;
20073;SDS011;10197;54.282;10.078;2023-07-31T07:05:45;3.20;;;2.90;;
20073;SDS011;10197;54.282;10.078;2023-07-31T07:08:12;3.25;;;2.95;;
20073;SDS011;10197;54.282;10.078;2023-07-31T07:10:40;4.25;;;3.22;;
20073;SDS011;10197;54.282;10.078;2023-07-31T07:13:07;2.70;;;2.50;;
20073;SDS011;10197;54.282;10.078;2023-07-31T07:15:34;2.90;;;2.63;;
20073;SDS011;10197;54.282;10.078;2023-07-31T07:18:01;3.28;;;2.85;;
20073;SDS011;10197;54.282;10.078;2023-07-31T07:20:28;3.15;;;2.85;;
20073;SDS011;10197;54.282;10.078;2023-07-31T07:22:55;5.72;;;2.60;;
20073;SDS011;10197;54.282;10.078;2023-07-31T07:25:23;2.20;;;2.10;;
20073;SDS011;10197;54.282;10.078;2023-07-31T07:27:51;2.30;;;2.10;;
20073;SDS011;10197;54.282;10.078;2023-07-31T07:30:18;4.57;;;2.35;;
20073;SDS011;10197;54.282;10.078;2023-07-31T07:32:45;2.35;;;2.00;;
20073;SDS011;10197;54.282;10.078;2023-07-31T07:35:11;2.05;;;1.95;;
20073;SDS011;10197;54.282;10.078;2023-07-31T07:37:38;1.63;;;1.52;;
20073;SDS011;10197;54.282;10.078;2023-07-31T07:40:05;3.10;;;1.65;;
20073;SDS011;10197;54.282;10.078;2023-07-31T07:42:34;1.63;;;1.52;;
20073;SDS011;10197;54.282;10.078;2023-07-31T07:45:02;1.67;;;1.58;;
20073;SDS011;10197;54.282;10.078;2023-07-31T07:47:30;1.60;;;1.50;;
20073;SDS011;10197;54.282;10.078;2023-07-31T07:49:58;3.30;;;1.40;;
20073;SDS011;10197;54.282;10.078;2023-07-31T07:52:24;3.67;;;1.58;;
20073;SDS011;10197;54.282;10.078;2023-07-31T07:54:51;2.30;;;1.80;;
20073;SDS011;10197;54.282;10.078;2023-07-31T07:57:19;3.20;;;1.58;;
20073;SDS011;10197;54.282;10.078;2023-07-31T07:59:46;3.78;;;1.75;;
20073;SDS011;10197;54.282;10.078;2023-07-31T08:02:14;1.58;;;1.48;;
20073;SDS011;10197;54.282;10.078;2023-07-31T08:04:40;1.30;;;1.20;;
20073;SDS011;10197;54.282;10.078;2023-07-31T08:07:07;1.92;;;1.48;;
20073;SDS011;10197;54.282;10.078;2023-07-31T08:09:34;2.92;;;2.20;;
20073;SDS011;10197;54.282;10.078;2023-07-31T08:12:01;1.92;;;1.50;;
20073;SDS011;10197;54.282;10.078;2023-07-31T08:14:29;2.33;;;1.48;;
20073;SDS011;10197;54.282;10.078;2023-07-31T08:16:56;2.17;;;1.85;;
20073;SDS011;10197;54.282;10.078;2023-07-31T08:19:24;3.38;;;2.65;;
20073;SDS011;10197;54.282;10.078;2023-07-31T08:21:51;2.67;;;2.10;;
20073;SDS011;10197;54.282;10.078;2023-07-31T08:24:17;2.05;;;1.90;;
20073;SDS011;10197;54.282;10.078;2023-07-31T08:26:44;1.75;;;1.50;;
20073;SDS011;10197;54.282;10.078;2023-07-31T08:29:11;1.80;;;1.63;;
20073;SDS011;10197;54.282;10.078;2023-07-31T08:31:37;1.60;;;1.50;;
20073;SDS011;10197;54.282;10.078;2023-07-31T08:34:04;1.55;;;1.45;;
20073;SDS011;10197;54.282;10.078;2023-07-31T08:36:33;1.95;;;1.75;;
20073;SDS011;10197;54.282;10.078;2023-07-31T08:38:59;1.60;;;1.50;;
20073;SDS011;10197;54.282;10.078;2023-07-31T08:41:26;2.67;;;2.13;;
20073;SDS011;10197;54.282;10.078;2023-07-31T08:43:53;3.40;;;2.13;;
20073;SDS011;10197;54.282;10.078;2023-07-31T08:46:21;3.10;;;2.20;;
20073;SDS011;10197;54.282;10.078;2023-07-31T08:48:48;2.72;;;1.70;;
20073;SDS011;10197;54.282;10.078;2023-07-31T08:51:16;1.75;;;1.65;;
20073;SDS011;10197;54.282;10.078;2023-07-31T08:53:44;2.55;;;1.85;;
20073;SDS011;10197;54.282;10.078;2023-07-31T08:56:11;1.75;;;1.65;;
20073;SDS011;10197;54.282;10.078;2023-07-31T08:58:38;2.00;;;1.65;;
20073;SDS011;10197;54.282;10.078;2023-07-31T09:01:06;2.00;;;1.80;;
20073;SDS011;10197;54.282;10.078;2023-07-31T09:03:34;3.70;;;1.95;;
20073;SDS011;10197;54.282;10.078;2023-07-31T09:06:02;2.10;;;1.90;;
20073;SDS011;10197;54.282;10.078;2023-07-31T09:08:31;2.10;;;1.90;;
20073;SDS011;10197;54.282;10.078;2023-07-31T09:11:00;4.15;;;2.00;;
20073;SDS011;10197;54.282;10.078;2023-07-31T09:13:28;4.28;;;3.05;;
20073;SDS011;10197;54.282;10.078;2023-07-31T09:15:56;1.90;;;1.80;;
20073;SDS011;10197;54.282;10.078;2023-07-31T09:18:23;2.28;;;1.98;;
20073;SDS011;10197;54.282;10.078;2023-07-31T09:21:00;1.90;;;1.80;;
20073;SDS011;10197;54.282;10.078;2023-07-31T09:23:39;3.17;;;1.80;;
20073;SDS011;10197;54.282;10.078;2023-07-31T09:26:08;1.77;;;1.67;;
20073;SDS011;10197;54.282;10.078;2023-07-31T09:28:35;2.22;;;2.03;;
20073;SDS011;10197;54.282;10.078;2023-07-31T09:31:01;2.15;;;2.05;;
20073;SDS011;10197;54.282;10.078;2023-07-31T09:33:28;2.20;;;2.00;;
20073;SDS011;10197;54.282;10.078;2023-07-31T09:35:57;2.85;;;2.10;;
20073;SDS011;10197;54.282;10.078;2023-07-31T09:38:25;2.22;;;2.03;;
20073;SDS011;10197;54.282;10.078;2023-07-31T09:40:53;2.33;;;2.13;;
20073;SDS011;10197;54.282;10.078;2023-07-31T09:43:21;2.72;;;2.40;;
20073;SDS011;10197;54.282;10.078;2023-07-31T09:45:54;2.90;;;2.60;;
20073;SDS011;10197;54.282;10.078;2023-07-31T09:48:22;2.92;;;2.22;;
20073;SDS011;10197;54.282;10.078;2023-07-31T09:50:52;2.67;;;2.10;;
20073;SDS011;10197;54.282;10.078;2023-07-31T09:53:19;2.20;;;2.10;;
20073;SDS011;10197;54.282;10.078;2023-07-31T09:55:46;3.00;;;2.63;;
20073;SDS011;10197;54.282;10.078;2023-07-31T09:58:13;3.00;;;2.45;;
20073;SDS011;10197;54.282;10.078;2023-07-31T10:00:41;2.28;;;2.10;;
20073;SDS011;10197;54.282;10.078;2023-07-31T10:03:10;2.15;;;2.05;;
20073;SDS011;10197;54.282;10.078;2023-07-31T10:05:38;2.65;;;2.45;;
20073;SDS011;10197;54.282;10.078;2023-07-31T10:08:07;2.50;;;2.30;;
20073;SDS011;10197;54.282;10.078;2023-07-31T10:10:35;2.60;;;2.40;;
20073;SDS011;10197;54.282;10.078;2023-07-31T10:13:02;2.60;;;2.40;;
20073;SDS011;10197;54.282;10.078;2023-07-31T10:15:31;2.55;;;2.35;;
20073;SDS011;10197;54.282;10.078;2023-07-31T10:17:59;2.83;;;2.63;;
20073;SDS011;10197;54.282;10.078;2023-07-31T10:20:26;2.70;;;2.50;;
20073;SDS011;10197;54.282;10.078;2023-07-31T10:22:54;2.75;;;2.22;;
20073;SDS011;10197;54.282;10.078;2023-07-31T10:25:21;3.42;;;2.83;;
20073;SDS011;10197;54.282;10.078;2023-07-31T10:27:49;2.92;;;2.67;;
20073;SDS011;10197;54.282;10.078;2023-07-31T10:30:16;4.10;;;2.90;;
20073;SDS011;10197;54.282;10.078;2023-07-31T10:32:45;4.50;;;2.97;;
20073;SDS011;10197;54.282;10.078;2023-07-31T10:35:14;3.42;;;2.70;;
20073;SDS011;10197;54.282;10.078;2023-07-31T10:37:45;2.97;;;2.70;;
20073;SDS011;10197;54.282;10.078;2023-07-31T10:40:12;5.07;;;3.13;;
20073;SDS011;10197;54.282;10.078;2023-07-31T10:42:46;3.00;;;2.80;;
20073;SDS011;10197;54.282;10.078;2023-07-31T10:45:14;4.20;;;2.60;;
20073;SDS011;10197;54.282;10.078;2023-07-31T10:47:57;3.45;;;2.70;;
20073;SDS011;10197;54.282;10.078;2023-07-31T10:50:27;3.42;;;2.95;;
20073;SDS011;10197;54.282;10.078;2023-07-31T10:52:55;3.50;;;2.78;;
20073;SDS011;10197;54.282;10.078;2023-07-31T10:55:24;3.05;;;2.75;;
20073;SDS011;10197;54.282;10.078;2023-07-31T10:57:53;4.55;;;2.60;;
20073;SDS011;10197;54.282;10.078;2023-07-31T11:00:21;2.60;;;2.40;;
20073;SDS011;10197;54.282;10.078;2023-07-31T11:02:59;3.13;;;2.83;;
20073;SDS011;10197;54.282;10.078;2023-07-31T11:05:47;2.88;;;2.58;;
20073;SDS011;10197;54.282;10.078;2023-07-31T11:08:19;4.22;;;2.50;;
20073;SDS011;10197;54.282;10.078;2023-07-31T11:10:48;2.40;;;2.20;;
20073;SDS011;10197;54.282;10.078;2023-07-31T11:13:16;4.35;;;2.83;;
20073;SDS011;10197;54.282;10.078;2023-07-31T11:15:42;7.32;;;3.67;;
20073;SDS011;10197;54.282;10.078;2023-07-31T11:18:09;3.15;;;2.83;;
20073;SDS011;10197;54.282;10.078;2023-07-31T11:20:37;2.53;;;2.33;;
20073;SDS011;10197;54.282;10.078;2023-07-31T11:23:08;2.50;;;2.30;;
20073;SDS011;10197;54.282;10.078;2023-07-31T11:25:36;2.78;;;2.53;;
20073;SDS011;10197;54.282;10.078;2023-07-31T11:28:06;3.40;;;2.65;;
20073;SDS011;10197;54.282;10.078;2023-07-31T11:30:33;3.00;;;2.72;;
20073;SDS011;10197;54.282;10.078;2023-07-31T11:33:01;3.05;;;2.45;;
20073;SDS011;10197;54.282;10.078;2023-07-31T11:35:29;11.25;;;4.90;;
20073;SDS011;10197;54.282;10.078;2023-07-31T11:37:57;6.00;;;3.25;;
20073;SDS011;10197;54.282;10.078;2023-07-31T11:40:25;2.75;;;2.35;;
20073;SDS011;10197;54.282;10.078;2023-07-31T11:42:56;2.92;;;2.45;;
20073;SDS011;10197;54.282;10.078;2023-07-31T11:45:24;2.40;;;2.20;;
20073;SDS011;10197;54.282;10.078;2023-07-31T11:47:53;2.67;;;2.47;;
20073;SDS011;10197;54.282;10.078;2023-07-31T11:50:21;3.33;;;2.42;;
20073;SDS011;10197;54.282;10.078;2023-07-31T11:52:50;3.15;;;2.85;;
20073;SDS011;10197;54.282;10.078;2023-07-31T11:55:20;3.38;;;2.40;;
20073;SDS011;10197;54.282;10.078;2023-07-31T11:57:48;2.13;;;1.92;;
20073;SDS011;10197;54.282;10.078;2023-07-31T12:00:15;2.95;;;2.53;;
20073;SDS011;10197;54.282;10.078;2023-07-31T12:02:43;2.55;;;2.35;;
20073;SDS011;10197;54.282;10.078;2023-07-31T12:05:10;3.22;;;2.50;;
20073;SDS011;10197;54.282;10.078;2023-07-31T12:07:47;4.25;;;2.70;;
20073;SDS011;10197;54.282;10.078;2023-07-31T12:10:28;2.47;;;2.28;;
20073;SDS011;10197;54.282;10.078;2023-07-31T12:12:58;3.03;;;2.50;;
20073;SDS011;10197;54.282;10.078;2023-07-31T12:15:29;2.13;;;2.03;;
20073;SDS011;10197;54.282;10.078;2023-07-31T12:17:57;3.38;;;2.95;;
20073;SDS011;10197;54.282;10.078;2023-07-31T12:20:25;3.47;;;3.15;;
20073;SDS011;10197;54.282;10.078;2023-07-31T12:22:52;3.20;;;2.90;;
20073;SDS011;10197;54.282;10.078;2023-07-31T12:25:28;2.78;;;2.50;;
20073;SDS011;10197;54.282;10.078;2023-07-31T12:27:58;2.90;;;2.70;;
20073;SDS011;10197;54.282;10.078;2023-07-31T12:30:31;2.75;;;2.55;;
20073;SDS011;10197;54.282;10.078;2023-07-31T12:33:02;3.20;;;2.90;;
20073;SDS011;10197;54.282;10.078;2023-07-31T12:35:34;3.28;;;2.20;;
20073;SDS011;10197;54.282;10.078;2023-07-31T12:38:01;2.35;;;2.20;;
20073;SDS011;10197;54.282;10.078;2023-07-31T12:40:28;2.58;;;2.38;;
20073;SDS011;10197;54.282;10.078;2023-07-31T12:43:00;8.40;;;3.05;;
20073;SDS011;10197;54.282;10.078;2023-07-31T12:45:27;4.00;;;3.10;;
20073;SDS011;10197;54.282;10.078;2023-07-31T12:47:54;3.53;;;2.10;;
20073;SDS011;10197;54.282;10.078;2023-07-31T12:50:21;2.75;;;2.22;;
20073;SDS011;10197;54.282;10.078;2023-07-31T12:52:49;2.53;;;1.95;;
20073;SDS011;10197;54.282;10.078;2023-07-31T12:55:15;2.17;;;1.80;;
20073;SDS011;10197;54.282;10.078;2023-07-31T12:57:43;2.33;;;2.10;;
20073;SDS011;10197;54.282;10.078;2023-07-31T13:00:13;2.28;;;2.08;;
20073;SDS011;10197;54.282;10.078;2023-07-31T13:02:40;1.75;;;1.65;;
20073;SDS011;10197;54.282;10.078;2023-07-31T13:05:07;2.20;;;2.00;;
20073;SDS011;10197;54.282;10.078;2023-07-31T13:07:34;2.25;;;1.92;;
20073;SDS011;10197;54.282;10.078;2023-07-31T13:10:01;2.20;;;1.85;;
20073;SDS011;10197;54.282;10.078;2023-07-31T13:12:29;2.20;;;1.63;;
20073;SDS011;10197;54.282;10.078;2023-07-31T13:14:56;2.53;;;1.70;;
20073;SDS011;10197;54.282;10.078;2023-07-31T13:17:24;1.75;;;1.52;;
20073;SDS011;10197;54.282;10.078;2023-07-31T13:19:52;3.00;;;2.67;;
20073;SDS011;10197;54.282;10.078;2023-07-31T13:22:18;3.05;;;2.15;;
20073;SDS011;10197;54.282;10.078;2023-07-31T13:24:47;2.75;;;2.00;;
20073;SDS011;10197;54.282;10.078;2023-07-31T13:27:14;2.30;;;2.10;;
20073;SDS011;10197;54.282;10.078;2023-07-31T13:29:42;1.80;;;1.70;;
20073;SDS011;10197;54.282;10.078;2023-07-31T13:32:08;2.20;;;1.73;;
20073;SDS011;10197;54.282;10.078;2023-07-31T13:34:37;2.55;;;2.35;;
20073;SDS011;10197;54.282;10.078;2023-07-31T13:37:05;1.85;;;1.73;;
20073;SDS011;10197;54.282;10.078;2023-07-31T13:39:32;2.15;;;1.88;;
20073;SDS011;10197;54.282;10.078;2023-07-31T13:41:59;1.75;;;1.65;;
20073;SDS011;10197;54.282;10.078;2023-07-31T13:44:27;2.03;;;1.60;;
20073;SDS011;10197;54.282;10.078;2023-07-31T13:46:54;2.50;;;1.70;;
20073;SDS011;10197;54.282;10.078;2023-07-31T13:49:20;1.98;;;1.77;;
20073;SDS011;10197;54.282;10.078;2023-07-31T13:51:50;2.22;;;1.70;;
20073;SDS011;10197;54.282;10.078;2023-07-31T13:54:17;2.50;;;2.28;;
20073;SDS011;10197;54.282;10.078;2023-07-31T13:56:44;2.38;;;1.95;;
20073;SDS011;10197;54.282;10.078;2023-07-31T13:59:11;1.50;;;1.40;;
20073;SDS011;10197;54.282;10.078;2023-07-31T14:01:40;1.92;;;1.80;;
20073;SDS011;10197;54.282;10.078;2023-07-31T14:04:07;5.88;;;1.90;;
20073;SDS011;10197;54.282;10.078;2023-07-31T14:06:33;2.95;;;1.80;;
20073;SDS011;10197;54.282;10.078;2023-07-31T14:09:01;1.85;;;1.50;;
20073;SDS011;10197;54.282;10.078;2023-07-31T14:11:29;2.15;;;1.90;;
20073;SDS011;10197;54.282;10.078;2023-07-31T14:13:57;2.55;;;1.40;;
20073;SDS011;10197;54.282;10.078;2023-07-31T14:16:23;2.70;;;1.23;;
20073;SDS011;10197;54.282;10.078;2023-07-31T14:18:50;1.98;;;1.77;;
20073;SDS011;10197;54.282;10.078;2023-07-31T14:21:19;2.78;;;1.75;;
20073;SDS011;10197;54.282;10.078;2023-07-31T14:23:50;1.50;;;1.40;;
20073;SDS011;10197;54.282;10.078;2023-07-31T14:26:30;4.30;;;1.50;;
20073;SDS011;10197;54.282;10.078;2023-07-31T14:29:07;1.60;;;1.35;;
20073;SDS011;10197;54.282;10.078;2023-07-31T14:31:36;1.48;;;1.38;;
20073;SDS011;10197;54.282;10.078;2023-07-31T14:34:09;2.92;;;1.40;;
20073;SDS011;10197;54.282;10.078;2023-07-31T14:36:36;2.42;;;1.58;;
20073;SDS011;10197;54.282;10.078;2023-07-31T14:39:03;1.83;;;1.60;;
20073;SDS011;10197;54.282;10.078;2023-07-31T14:41:31;2.38;;;1.60;;